Terminal Aerodrome Forecast
Issued by NWS Grand Forks, ND

Home | Current Version | Previous Version | Text Only | Print | Product List | Glossary Off
Versions: 1 2 3 4 5 6 7 8 9 10 11 12 13 14 15 16 17 18

000
FTUS43 KFGF 180400 AAA
TAFGFK
TAF AMD
KGFK 180427Z 1804/1824 34008KT P6SM OVC035
     FM180600 34006KT P6SM OVC025
     FM180800 34005KT P6SM OVC018
     FM181900 18010KT P6SM SCT020 BKN250=

USA.gov is the U.S. government's official web portal to all federal, state and local government web resources and services.